Yirrkala Mission, Australia
Current Conditions -  °F | °C
As of 10:00 PM on Saturday 22 Nov 2014 (Local Time) from YPGV Reporting Station
Scattered Clouds Scattered Clouds  
Wind Chill: 77°   Ceiling: Unl
Heat Index: 78°   Visibility: 6mi
Dew Point: 73°   Wind: 1mph
Humidity: 89%   Direction: 70°ENE
Pressure: 29.85"   Gusts: NA
Location:  12.25°S, 136.89°E
Report Text: YPGV 221300Z AUTO 07001KT 9999 // SCT018 25/23 Q1011
Loading
Personal Weather Stations






























Interactive Weather Map New forecast layout! Learn more

10-Day Weather Forecast

Advertisements
Track Severe Weather on mobile